sensor_id;sensor_type;location;lat;lon;timestamp;P1;durP1;ratioP1;P2;durP2;ratioP2
42988;SDS011;28622;43.716;20.668;2023-04-01T00:00:18;2.20;;;0.93;;
42988;SDS011;28622;43.716;20.668;2023-04-01T00:02:44;1.38;;;0.63;;
42988;SDS011;28622;43.716;20.668;2023-04-01T00:05:11;2.92;;;0.88;;
42988;SDS011;28622;43.716;20.668;2023-04-01T00:07:37;2.05;;;0.70;;
42988;SDS011;28622;43.716;20.668;2023-04-01T00:10:04;2.63;;;0.88;;
42988;SDS011;28622;43.716;20.668;2023-04-01T00:12:31;1.15;;;0.65;;
42988;SDS011;28622;43.716;20.668;2023-04-01T00:14:57;1.75;;;0.47;;
42988;SDS011;28622;43.716;20.668;2023-04-01T00:17:23;3.33;;;0.47;;
42988;SDS011;28622;43.716;20.668;2023-04-01T00:19:49;3.80;;;0.80;;
42988;SDS011;28622;43.716;20.668;2023-04-01T00:22:15;2.80;;;0.90;;
42988;SDS011;28622;43.716;20.668;2023-04-01T00:24:40;2.40;;;1.00;;
42988;SDS011;28622;43.716;20.668;2023-04-01T00:27:06;2.00;;;1.20;;
42988;SDS011;28622;43.716;20.668;2023-04-01T00:29:33;4.85;;;1.38;;
42988;SDS011;28622;43.716;20.668;2023-04-01T00:31:59;2.83;;;1.30;;
42988;SDS011;28622;43.716;20.668;2023-04-01T00:34:25;2.72;;;1.20;;
42988;SDS011;28622;43.716;20.668;2023-04-01T00:36:52;5.03;;;1.92;;
42988;SDS011;28622;43.716;20.668;2023-04-01T00:39:18;3.30;;;1.33;;
42988;SDS011;28622;43.716;20.668;2023-04-01T00:41:47;1.77;;;0.88;;
42988;SDS011;28622;43.716;20.668;2023-04-01T00:44:23;2.97;;;0.90;;
42988;SDS011;28622;43.716;20.668;2023-04-01T00:46:50;2.90;;;1.40;;
42988;SDS011;28622;43.716;20.668;2023-04-01T00:49:18;2.08;;;1.15;;
42988;SDS011;28622;43.716;20.668;2023-04-01T00:51:48;1.88;;;0.95;;
42988;SDS011;28622;43.716;20.668;2023-04-01T00:54:17;3.55;;;1.60;;
42988;SDS011;28622;43.716;20.668;2023-04-01T00:56:49;5.75;;;1.90;;
42988;SDS011;28622;43.716;20.668;2023-04-01T00:59:24;4.18;;;1.90;;
42988;SDS011;28622;43.716;20.668;2023-04-01T01:01:59;5.32;;;2.30;;
42988;SDS011;28622;43.716;20.668;2023-04-01T01:04:28;6.32;;;3.00;;
42988;SDS011;28622;43.716;20.668;2023-04-01T01:13:04;3.20;;;1.58;;
42988;SDS011;28622;43.716;20.668;2023-04-01T01:19:11;9.40;;;2.85;;
42988;SDS011;28622;43.716;20.668;2023-04-01T01:27:37;2.28;;;0.95;;
42988;SDS011;28622;43.716;20.668;2023-04-01T01:35:56;2.15;;;0.80;;
42988;SDS011;28622;43.716;20.668;2023-04-01T01:38:26;3.83;;;0.80;;
42988;SDS011;28622;43.716;20.668;2023-04-01T01:40:55;1.60;;;0.80;;
42988;SDS011;28622;43.716;20.668;2023-04-01T01:43:24;1.65;;;0.68;;
42988;SDS011;28622;43.716;20.668;2023-04-01T01:45:54;1.52;;;0.73;;
42988;SDS011;28622;43.716;20.668;2023-04-01T01:48:23;3.17;;;0.68;;
42988;SDS011;28622;43.716;20.668;2023-04-01T01:50:51;5.32;;;0.82;;
42988;SDS011;28622;43.716;20.668;2023-04-01T01:53:18;3.78;;;0.93;;
42988;SDS011;28622;43.716;20.668;2023-04-01T01:55:44;1.42;;;0.63;;
42988;SDS011;28622;43.716;20.668;2023-04-01T01:58:13;2.85;;;0.47;;
42988;SDS011;28622;43.716;20.668;2023-04-01T02:00:45;3.33;;;0.93;;
42988;SDS011;28622;43.716;20.668;2023-04-01T02:03:16;2.85;;;1.10;;
42988;SDS011;28622;43.716;20.668;2023-04-01T02:05:44;3.85;;;1.55;;
42988;SDS011;28622;43.716;20.668;2023-04-01T02:10:59;1.15;;;0.73;;
42988;SDS011;28622;43.716;20.668;2023-04-01T02:13:37;1.90;;;0.65;;
42988;SDS011;28622;43.716;20.668;2023-04-01T02:16:23;1.50;;;0.50;;
42988;SDS011;28622;43.716;20.668;2023-04-01T02:18:54;1.80;;;0.75;;
42988;SDS011;28622;43.716;20.668;2023-04-01T02:21:23;3.83;;;0.68;;
42988;SDS011;28622;43.716;20.668;2023-04-01T02:23:50;1.02;;;0.50;;
42988;SDS011;28622;43.716;20.668;2023-04-01T02:26:18;3.45;;;0.65;;
42988;SDS011;28622;43.716;20.668;2023-04-01T02:28:45;1.70;;;0.75;;
42988;SDS011;28622;43.716;20.668;2023-04-01T02:31:13;3.63;;;0.60;;
42988;SDS011;28622;43.716;20.668;2023-04-01T02:33:40;0.93;;;0.50;;
42988;SDS011;28622;43.716;20.668;2023-04-01T02:36:10;1.73;;;1.10;;
42988;SDS011;28622;43.716;20.668;2023-04-01T02:38:38;2.83;;;1.17;;
42988;SDS011;28622;43.716;20.668;2023-04-01T02:41:04;3.88;;;0.88;;
42988;SDS011;28622;43.716;20.668;2023-04-01T02:43:31;1.65;;;0.80;;
42988;SDS011;28622;43.716;20.668;2023-04-01T02:45:57;5.35;;;1.30;;
42988;SDS011;28622;43.716;20.668;2023-04-01T02:48:23;3.13;;;0.60;;
42988;SDS011;28622;43.716;20.668;2023-04-01T02:50:49;1.45;;;0.90;;
42988;SDS011;28622;43.716;20.668;2023-04-01T02:53:14;2.90;;;0.88;;
42988;SDS011;28622;43.716;20.668;2023-04-01T02:55:41;2.10;;;0.73;;
42988;SDS011;28622;43.716;20.668;2023-04-01T02:58:07;1.52;;;0.98;;
42988;SDS011;28622;43.716;20.668;2023-04-01T03:00:32;3.20;;;0.98;;
42988;SDS011;28622;43.716;20.668;2023-04-01T03:02:58;0.82;;;0.65;;
42988;SDS011;28622;43.716;20.668;2023-04-01T03:05:24;3.58;;;0.70;;
42988;SDS011;28622;43.716;20.668;2023-04-01T03:07:50;0.85;;;0.50;;
42988;SDS011;28622;43.716;20.668;2023-04-01T03:10:16;1.67;;;0.63;;
42988;SDS011;28622;43.716;20.668;2023-04-01T03:12:42;1.13;;;0.63;;
42988;SDS011;28622;43.716;20.668;2023-04-01T03:15:09;2.60;;;1.13;;
42988;SDS011;28622;43.716;20.668;2023-04-01T03:17:37;3.38;;;1.25;;
42988;SDS011;28622;43.716;20.668;2023-04-01T03:20:03;0.98;;;0.55;;
42988;SDS011;28622;43.716;20.668;2023-04-01T03:22:30;3.15;;;0.90;;
42988;SDS011;28622;43.716;20.668;2023-04-01T03:24:56;2.10;;;0.77;;
42988;SDS011;28622;43.716;20.668;2023-04-01T03:27:22;2.50;;;0.80;;
42988;SDS011;28622;43.716;20.668;2023-04-01T03:29:48;0.70;;;0.50;;
42988;SDS011;28622;43.716;20.668;2023-04-01T03:32:14;2.42;;;1.08;;
42988;SDS011;28622;43.716;20.668;2023-04-01T03:34:39;1.60;;;0.80;;
42988;SDS011;28622;43.716;20.668;2023-04-01T03:37:05;7.05;;;1.25;;
42988;SDS011;28622;43.716;20.668;2023-04-01T03:39:31;3.53;;;1.00;;
42988;SDS011;28622;43.716;20.668;2023-04-01T03:41:57;6.30;;;1.08;;
42988;SDS011;28622;43.716;20.668;2023-04-01T03:44:22;5.10;;;1.08;;
42988;SDS011;28622;43.716;20.668;2023-04-01T03:46:48;10.70;;;1.15;;
42988;SDS011;28622;43.716;20.668;2023-04-01T03:49:14;1.88;;;0.93;;
42988;SDS011;28622;43.716;20.668;2023-04-01T03:51:41;3.10;;;1.77;;
42988;SDS011;28622;43.716;20.668;2023-04-01T03:54:08;5.93;;;2.28;;
42988;SDS011;28622;43.716;20.668;2023-04-01T03:56:34;2.35;;;1.63;;
42988;SDS011;28622;43.716;20.668;2023-04-01T03:59:02;6.95;;;2.28;;
42988;SDS011;28622;43.716;20.668;2023-04-01T04:01:28;6.78;;;2.20;;
42988;SDS011;28622;43.716;20.668;2023-04-01T04:03:55;2.55;;;1.33;;
42988;SDS011;28622;43.716;20.668;2023-04-01T04:06:21;1.95;;;0.90;;
42988;SDS011;28622;43.716;20.668;2023-04-01T04:08:47;3.38;;;1.30;;
42988;SDS011;28622;43.716;20.668;2023-04-01T04:11:14;1.90;;;0.90;;
42988;SDS011;28622;43.716;20.668;2023-04-01T04:13:40;1.83;;;0.77;;
42988;SDS011;28622;43.716;20.668;2023-04-01T04:16:07;2.80;;;1.85;;
42988;SDS011;28622;43.716;20.668;2023-04-01T04:18:33;3.15;;;1.10;;
42988;SDS011;28622;43.716;20.668;2023-04-01T04:20:59;1.90;;;0.88;;
42988;SDS011;28622;43.716;20.668;2023-04-01T04:23:25;3.08;;;0.95;;
42988;SDS011;28622;43.716;20.668;2023-04-01T04:28:25;3.20;;;1.80;;
42988;SDS011;28622;43.716;20.668;2023-04-01T04:30:51;2.88;;;1.08;;
42988;SDS011;28622;43.716;20.668;2023-04-01T04:33:18;4.95;;;1.38;;
42988;SDS011;28622;43.716;20.668;2023-04-01T04:35:44;4.72;;;1.80;;
42988;SDS011;28622;43.716;20.668;2023-04-01T04:38:10;2.75;;;1.50;;
42988;SDS011;28622;43.716;20.668;2023-04-01T04:40:36;3.47;;;1.45;;
42988;SDS011;28622;43.716;20.668;2023-04-01T04:43:03;4.68;;;1.77;;
42988;SDS011;28622;43.716;20.668;2023-04-01T04:45:29;3.15;;;1.20;;
42988;SDS011;28622;43.716;20.668;2023-04-01T04:47:55;5.45;;;1.33;;
42988;SDS011;28622;43.716;20.668;2023-04-01T04:50:21;5.53;;;1.33;;
42988;SDS011;28622;43.716;20.668;2023-04-01T04:52:48;5.70;;;1.20;;
42988;SDS011;28622;43.716;20.668;2023-04-01T04:55:13;5.82;;;2.70;;
42988;SDS011;28622;43.716;20.668;2023-04-01T04:57:40;7.30;;;2.78;;
42988;SDS011;28622;43.716;20.668;2023-04-01T05:00:06;6.55;;;2.30;;
42988;SDS011;28622;43.716;20.668;2023-04-01T05:02:33;3.92;;;1.73;;
42988;SDS011;28622;43.716;20.668;2023-04-01T05:04:59;1.98;;;1.42;;
42988;SDS011;28622;43.716;20.668;2023-04-01T05:07:25;6.70;;;1.50;;
42988;SDS011;28622;43.716;20.668;2023-04-01T05:09:50;4.35;;;1.15;;
42988;SDS011;28622;43.716;20.668;2023-04-01T05:12:16;1.50;;;1.02;;
42988;SDS011;28622;43.716;20.668;2023-04-01T05:14:42;3.33;;;1.40;;
42988;SDS011;28622;43.716;20.668;2023-04-01T05:17:09;5.40;;;2.10;;
42988;SDS011;28622;43.716;20.668;2023-04-01T05:19:35;4.90;;;2.53;;
42988;SDS011;28622;43.716;20.668;2023-04-01T05:22:01;4.40;;;1.63;;
42988;SDS011;28622;43.716;20.668;2023-04-01T05:24:27;4.20;;;2.33;;
42988;SDS011;28622;43.716;20.668;2023-04-01T05:26:53;4.65;;;2.20;;
42988;SDS011;28622;43.716;20.668;2023-04-01T05:29:19;4.72;;;2.20;;
42988;SDS011;28622;43.716;20.668;2023-04-01T05:31:46;3.00;;;1.70;;
42988;SDS011;28622;43.716;20.668;2023-04-01T05:34:11;2.97;;;1.70;;
42988;SDS011;28622;43.716;20.668;2023-04-01T05:36:38;3.47;;;2.08;;
42988;SDS011;28622;43.716;20.668;2023-04-01T05:39:04;4.22;;;2.33;;
42988;SDS011;28622;43.716;20.668;2023-04-01T05:41:30;4.53;;;2.05;;
42988;SDS011;28622;43.716;20.668;2023-04-01T05:43:56;5.57;;;2.20;;
42988;SDS011;28622;43.716;20.668;2023-04-01T05:46:21;9.90;;;2.70;;
42988;SDS011;28622;43.716;20.668;2023-04-01T05:48:47;6.18;;;2.50;;
42988;SDS011;28622;43.716;20.668;2023-04-01T05:51:13;5.85;;;3.10;;
42988;SDS011;28622;43.716;20.668;2023-04-01T05:53:40;5.68;;;2.35;;
42988;SDS011;28622;43.716;20.668;2023-04-01T05:56:06;4.82;;;2.40;;
42988;SDS011;28622;43.716;20.668;2023-04-01T05:58:34;8.52;;;2.75;;
42988;SDS011;28622;43.716;20.668;2023-04-01T06:01:04;6.53;;;2.35;;
42988;SDS011;28622;43.716;20.668;2023-04-01T06:03:32;4.97;;;2.40;;
42988;SDS011;28622;43.716;20.668;2023-04-01T06:05:58;7.75;;;3.85;;
42988;SDS011;28622;43.716;20.668;2023-04-01T06:08:26;10.57;;;4.10;;
42988;SDS011;28622;43.716;20.668;2023-04-01T06:11:12;16.90;;;5.85;;
42988;SDS011;28622;43.716;20.668;2023-04-01T06:22:27;4.50;;;2.25;;
42988;SDS011;28622;43.716;20.668;2023-04-01T06:38:51;4.20;;;2.30;;
42988;SDS011;28622;43.716;20.668;2023-04-01T06:44:18;6.15;;;2.40;;
42988;SDS011;28622;43.716;20.668;2023-04-01T06:50:04;3.75;;;2.17;;
42988;SDS011;28622;43.716;20.668;2023-04-01T06:55:24;6.77;;;2.23;;
42988;SDS011;28622;43.716;20.668;2023-04-01T06:57:55;9.75;;;2.75;;
42988;SDS011;28622;43.716;20.668;2023-04-01T07:05:43;3.92;;;1.60;;
42988;SDS011;28622;43.716;20.668;2023-04-01T07:08:10;4.65;;;2.05;;
42988;SDS011;28622;43.716;20.668;2023-04-01T07:10:43;4.32;;;1.60;;
42988;SDS011;28622;43.716;20.668;2023-04-01T07:13:25;3.03;;;1.60;;
42988;SDS011;28622;43.716;20.668;2023-04-01T07:15:57;4.05;;;1.90;;
42988;SDS011;28622;43.716;20.668;2023-04-01T07:19:03;9.27;;;2.88;;
42988;SDS011;28622;43.716;20.668;2023-04-01T07:21:47;6.57;;;2.97;;
42988;SDS011;28622;43.716;20.668;2023-04-01T07:24:31;5.53;;;2.33;;
42988;SDS011;28622;43.716;20.668;2023-04-01T07:27:01;10.05;;;3.88;;
42988;SDS011;28622;43.716;20.668;2023-04-01T07:29:27;5.07;;;2.45;;
42988;SDS011;28622;43.716;20.668;2023-04-01T07:40:39;3.42;;;1.45;;
42988;SDS011;28622;43.716;20.668;2023-04-01T07:51:31;3.25;;;1.45;;
42988;SDS011;28622;43.716;20.668;2023-04-01T07:54:40;4.45;;;1.50;;
42988;SDS011;28622;43.716;20.668;2023-04-01T07:57:21;2.95;;;1.42;;
42988;SDS011;28622;43.716;20.668;2023-04-01T08:03:16;1.17;;;0.75;;
42988;SDS011;28622;43.716;20.668;2023-04-01T08:16:59;1.70;;;1.42;;
42988;SDS011;28622;43.716;20.668;2023-04-01T08:22:20;7.85;;;3.10;;
42988;SDS011;28622;43.716;20.668;2023-04-01T08:24:52;5.22;;;2.30;;
42988;SDS011;28622;43.716;20.668;2023-04-01T08:29:50;4.03;;;1.88;;
42988;SDS011;28622;43.716;20.668;2023-04-01T08:35:07;4.25;;;1.52;;
42988;SDS011;28622;43.716;20.668;2023-04-01T08:37:34;6.10;;;1.95;;
42988;SDS011;28622;43.716;20.668;2023-04-01T08:42:55;3.10;;;1.58;;
42988;SDS011;28622;43.716;20.668;2023-04-01T08:48:35;9.23;;;2.50;;
42988;SDS011;28622;43.716;20.668;2023-04-01T08:59:53;5.63;;;1.98;;
42988;SDS011;28622;43.716;20.668;2023-04-01T09:08:53;2.95;;;1.00;;
42988;SDS011;28622;43.716;20.668;2023-04-01T09:14:26;2.97;;;0.98;;
42988;SDS011;28622;43.716;20.668;2023-04-01T09:31:47;8.07;;;1.67;;
42988;SDS011;28622;43.716;20.668;2023-04-01T09:51:37;2.33;;;0.80;;
42988;SDS011;28622;43.716;20.668;2023-04-01T10:42:05;1.70;;;1.27;;
42988;SDS011;28622;43.716;20.668;2023-04-01T11:16:18;1.00;;;0.60;;
42988;SDS011;28622;43.716;20.668;2023-04-01T11:22:06;0.80;;;0.65;;
42988;SDS011;28622;43.716;20.668;2023-04-01T11:44:24;0.50;;;0.28;;
42988;SDS011;28622;43.716;20.668;2023-04-01T12:00:41;3.45;;;1.45;;
42988;SDS011;28622;43.716;20.668;2023-04-01T12:03:37;1.02;;;0.65;;
42988;SDS011;28622;43.716;20.668;2023-04-01T12:06:25;0.80;;;0.80;;
42988;SDS011;28622;43.716;20.668;2023-04-01T12:09:20;0.50;;;0.50;;
42988;SDS011;28622;43.716;20.668;2023-04-01T12:14:41;0.80;;;0.47;;
42988;SDS011;28622;43.716;20.668;2023-04-01T12:28:37;0.40;;;0.38;;
42988;SDS011;28622;43.716;20.668;2023-04-01T12:31:34;0.77;;;0.50;;
42988;SDS011;28622;43.716;20.668;2023-04-01T12:41:55;0.73;;;0.47;;
42988;SDS011;28622;43.716;20.668;2023-04-01T12:44:36;0.20;;;0.20;;
42988;SDS011;28622;43.716;20.668;2023-04-01T12:47:27;0.65;;;0.47;;
42988;SDS011;28622;43.716;20.668;2023-04-01T12:50:26;0.20;;;0.20;;
42988;SDS011;28622;43.716;20.668;2023-04-01T12:53:46;0.55;;;0.50;;
42988;SDS011;28622;43.716;20.668;2023-04-01T12:56:09;0.10;;;0.10;;
42988;SDS011;28622;43.716;20.668;2023-04-01T12:59:14;0.30;;;0.30;;
42988;SDS011;28622;43.716;20.668;2023-04-01T13:02:13;0.57;;;0.10;;
42988;SDS011;28622;43.716;20.668;2023-04-01T13:27:03;0.65;;;0.50;;
42988;SDS011;28622;43.716;20.668;2023-04-01T13:35:03;0.85;;;0.60;;
42988;SDS011;28622;43.716;20.668;2023-04-01T13:43:14;1.23;;;0.40;;
42988;SDS011;28622;43.716;20.668;2023-04-01T13:45:46;1.23;;;0.28;;
42988;SDS011;28622;43.716;20.668;2023-04-01T13:59:48;0.68;;;0.40;;
42988;SDS011;28622;43.716;20.668;2023-04-01T14:02:47;0.50;;;0.20;;
42988;SDS011;28622;43.716;20.668;2023-04-01T14:15:50;2.05;;;0.75;;
42988;SDS011;28622;43.716;20.668;2023-04-01T14:32:44;3.22;;;1.77;;
42988;SDS011;28622;43.716;20.668;2023-04-01T14:40:25;2.25;;;0.98;;
42988;SDS011;28622;43.716;20.668;2023-04-01T14:45:54;11.80;;;3.93;;
42988;SDS011;28622;43.716;20.668;2023-04-01T14:51:15;5.38;;;2.28;;
42988;SDS011;28622;43.716;20.668;2023-04-01T14:53:43;3.60;;;1.25;;
42988;SDS011;28622;43.716;20.668;2023-04-01T14:59:27;3.78;;;1.70;;
42988;SDS011;28622;43.716;20.668;2023-04-01T15:01:59;4.28;;;2.55;;
42988;SDS011;28622;43.716;20.668;2023-04-01T15:12:49;6.22;;;2.33;;
42988;SDS011;28622;43.716;20.668;2023-04-01T15:15:39;3.50;;;2.08;;
42988;SDS011;28622;43.716;20.668;2023-04-01T15:18:44;2.58;;;1.48;;
42988;SDS011;28622;43.716;20.668;2023-04-01T15:21:25;6.60;;;2.42;;
42988;SDS011;28622;43.716;20.668;2023-04-01T15:29:54;4.50;;;2.47;;
42988;SDS011;28622;43.716;20.668;2023-04-01T15:37:53;4.40;;;1.73;;
42988;SDS011;28622;43.716;20.668;2023-04-01T15:44:02;6.47;;;2.60;;
42988;SDS011;28622;43.716;20.668;2023-04-01T15:51:56;2.08;;;1.00;;
42988;SDS011;28622;43.716;20.668;2023-04-01T15:55:07;4.55;;;1.75;;
42988;SDS011;28622;43.716;20.668;2023-04-01T15:58:01;1.98;;;1.20;;
42988;SDS011;28622;43.716;20.668;2023-04-01T16:11:52;2.42;;;1.30;;
42988;SDS011;28622;43.716;20.668;2023-04-01T16:25:33;7.38;;;2.65;;
42988;SDS011;28622;43.716;20.668;2023-04-01T16:30:50;3.25;;;1.58;;
42988;SDS011;28622;43.716;20.668;2023-04-01T16:47:38;9.85;;;3.75;;
42988;SDS011;28622;43.716;20.668;2023-04-01T16:55:46;3.38;;;1.55;;
42988;SDS011;28622;43.716;20.668;2023-04-01T16:58:26;6.80;;;2.88;;
42988;SDS011;28622;43.716;20.668;2023-04-01T17:01:05;8.47;;;2.80;;
42988;SDS011;28622;43.716;20.668;2023-04-01T17:03:45;9.60;;;2.53;;
42988;SDS011;28622;43.716;20.668;2023-04-01T17:06:18;16.85;;;4.68;;
42988;SDS011;28622;43.716;20.668;2023-04-01T17:11:53;12.98;;;5.05;;
42988;SDS011;28622;43.716;20.668;2023-04-01T17:15:15;11.77;;;3.17;;
42988;SDS011;28622;43.716;20.668;2023-04-01T17:28:14;5.45;;;3.00;;
42988;SDS011;28622;43.716;20.668;2023-04-01T17:42:32;33.45;;;15.52;;
42988;SDS011;28622;43.716;20.668;2023-04-01T17:45:16;39.65;;;14.85;;
42988;SDS011;28622;43.716;20.668;2023-04-01T17:55:48;30.35;;;11.13;;
42988;SDS011;28622;43.716;20.668;2023-04-01T17:58:41;15.57;;;7.40;;
42988;SDS011;28622;43.716;20.668;2023-04-01T18:01:42;20.67;;;7.30;;
42988;SDS011;28622;43.716;20.668;2023-04-01T18:07:05;44.38;;;16.58;;
42988;SDS011;28622;43.716;20.668;2023-04-01T18:12:29;52.92;;;20.55;;
42988;SDS011;28622;43.716;20.668;2023-04-01T18:23:47;80.38;;;32.40;;
42988;SDS011;28622;43.716;20.668;2023-04-01T18:26:28;77.72;;;30.48;;
42988;SDS011;28622;43.716;20.668;2023-04-01T18:31:44;68.05;;;29.05;;
42988;SDS011;28622;43.716;20.668;2023-04-01T18:34:31;84.75;;;34.92;;
42988;SDS011;28622;43.716;20.668;2023-04-01T18:37:34;60.55;;;26.05;;
42988;SDS011;28622;43.716;20.668;2023-04-01T18:43:38;72.78;;;32.60;;
42988;SDS011;28622;43.716;20.668;2023-04-01T18:46:03;55.63;;;27.02;;
42988;SDS011;28622;43.716;20.668;2023-04-01T18:52:15;50.60;;;26.23;;
42988;SDS011;28622;43.716;20.668;2023-04-01T18:54:30;51.88;;;23.83;;
42988;SDS011;28622;43.716;20.668;2023-04-01T18:57:08;44.63;;;20.67;;
42988;SDS011;28622;43.716;20.668;2023-04-01T18:59:45;42.13;;;19.75;;
42988;SDS011;28622;43.716;20.668;2023-04-01T19:07:51;40.75;;;19.20;;
42988;SDS011;28622;43.716;20.668;2023-04-01T19:13:15;34.58;;;14.57;;
42988;SDS011;28622;43.716;20.668;2023-04-01T19:15:54;40.67;;;15.27;;
42988;SDS011;28622;43.716;20.668;2023-04-01T19:38:31;34.78;;;15.93;;
42988;SDS011;28622;43.716;20.668;2023-04-01T19:48:42;27.75;;;11.65;;
42988;SDS011;28622;43.716;20.668;2023-04-01T20:00:24;28.38;;;12.10;;
42988;SDS011;28622;43.716;20.668;2023-04-01T20:11:06;37.33;;;14.18;;
42988;SDS011;28622;43.716;20.668;2023-04-01T20:13:44;30.90;;;12.52;;
42988;SDS011;28622;43.716;20.668;2023-04-01T20:16:22;39.95;;;15.45;;
42988;SDS011;28622;43.716;20.668;2023-04-01T20:19:21;51.97;;;21.67;;
42988;SDS011;28622;43.716;20.668;2023-04-01T20:22:35;36.58;;;15.18;;
42988;SDS011;28622;43.716;20.668;2023-04-01T20:25:23;27.48;;;12.57;;
42988;SDS011;28622;43.716;20.668;2023-04-01T20:49:59;21.25;;;9.35;;
42988;SDS011;28622;43.716;20.668;2023-04-01T20:52:49;16.92;;;8.50;;
42988;SDS011;28622;43.716;20.668;2023-04-01T21:04:30;12.57;;;6.50;;
42988;SDS011;28622;43.716;20.668;2023-04-01T21:07:09;13.85;;;6.07;;
42988;SDS011;28622;43.716;20.668;2023-04-01T21:09:48;12.68;;;6.25;;
42988;SDS011;28622;43.716;20.668;2023-04-01T21:15:19;14.18;;;6.80;;
42988;SDS011;28622;43.716;20.668;2023-04-01T21:18:02;14.82;;;7.55;;
42988;SDS011;28622;43.716;20.668;2023-04-01T21:48:27;26.38;;;11.82;;
42988;SDS011;28622;43.716;20.668;2023-04-01T21:57:11;21.92;;;11.45;;
42988;SDS011;28622;43.716;20.668;2023-04-01T22:08:04;32.45;;;14.63;;
42988;SDS011;28622;43.716;20.668;2023-04-01T22:10:57;27.90;;;12.90;;
42988;SDS011;28622;43.716;20.668;2023-04-01T22:14:13;30.65;;;13.07;;
42988;SDS011;28622;43.716;20.668;2023-04-01T22:33:26;56.40;;;25.60;;
42988;SDS011;28622;43.716;20.668;2023-04-01T22:49:39;20.13;;;8.68;;
42988;SDS011;28622;43.716;20.668;2023-04-01T22:54:47;13.23;;;5.57;;
42988;SDS011;28622;43.716;20.668;2023-04-01T22:57:31;15.52;;;8.40;;
42988;SDS011;28622;43.716;20.668;2023-04-01T23:02:37;15.27;;;6.90;;
42988;SDS011;28622;43.716;20.668;2023-04-01T23:05:05;18.33;;;8.20;;
42988;SDS011;28622;43.716;20.668;2023-04-01T23:07:50;15.47;;;7.47;;
42988;SDS011;28622;43.716;20.668;2023-04-01T23:11:10;20.08;;;8.30;;
42988;SDS011;28622;43.716;20.668;2023-04-01T23:13:44;19.38;;;10.80;;
42988;SDS011;28622;43.716;20.668;2023-04-01T23:16:20;23.48;;;10.93;;
42988;SDS011;28622;43.716;20.668;2023-04-01T23:18:58;18.98;;;9.27;;
42988;SDS011;28622;43.716;20.668;2023-04-01T23:21:40;15.48;;;9.07;;
42988;SDS011;28622;43.716;20.668;2023-04-01T23:29:23;15.93;;;7.80;;
42988;SDS011;28622;43.716;20.668;2023-04-01T23:32:00;18.15;;;7.13;;
42988;SDS011;28622;43.716;20.668;2023-04-01T23:34:31;16.25;;;8.43;;
42988;SDS011;28622;43.716;20.668;2023-04-01T23:37:10;22.17;;;10.48;;
42988;SDS011;28622;43.716;20.668;2023-04-01T23:39:38;28.05;;;11.13;;
42988;SDS011;28622;43.716;20.668;2023-04-01T23:42:28;21.63;;;10.95;;
42988;SDS011;28622;43.716;20.668;2023-04-01T23:45:00;21.52;;;10.82;;
42988;SDS011;28622;43.716;20.668;2023-04-01T23:47:32;23.30;;;10.60;;
42988;SDS011;28622;43.716;20.668;2023-04-01T23:50:04;28.35;;;11.75;;
42988;SDS011;28622;43.716;20.668;2023-04-01T23:52:40;36.42;;;15.25;;
42988;SDS011;28622;43.716;20.668;2023-04-01T23:55:19;32.00;;;15.05;;
42988;SDS011;28622;43.716;20.668;2023-04-01T23:58:14;35.95;;;15.82;;
